Time;durP1;ratioP1;P1;durP2;ratioP2;P2;SDS_P1;SDS_P2;PMS_P1;PMS_P2;Temp;Humidity;BMP_temperature;BMP_pressure;BME280_temperature;BME280_humidity;BME280_pressure;Samples;Min_cycle;Max_cycle;Signal;HPM_P1;HPM_P2
2022/12/21 00:00:50;;;;;;;1.92;1.30;;;17.90;55.60;;;;;;5053532;28;20237;-64
2022/12/21 00:03:16;;;;;;;2.05;1.60;;;17.90;55.60;;;;;;5053587;28;20167;-64
2022/12/21 00:05:42;;;;;;;1.45;1.35;;;17.90;55.70;;;;;;5052597;28;20207;-64
2022/12/21 00:08:07;;;;;;;1.23;1.20;;;17.90;55.60;;;;;;5053546;28;20182;-65
2022/12/21 00:10:33;;;;;;;1.60;1.50;;;17.90;55.60;;;;;;5053070;28;20175;-65
2022/12/21 00:12:58;;;;;;;1.45;1.30;;;17.90;55.60;;;;;;5052727;28;20236;-66
2022/12/21 00:15:24;;;;;;;1.48;1.38;;;17.90;55.70;;;;;;5053391;28;20714;-66
2022/12/21 00:17:49;;;;;;;1.80;1.70;;;17.90;55.60;;;;;;5053213;28;20218;-66
2022/12/21 00:20:15;;;;;;;1.55;1.45;;;17.80;55.70;;;;;;5052990;28;20175;-66
2022/12/21 00:22:40;;;;;;;1.60;1.50;;;17.80;55.70;;;;;;5053056;28;20171;-66
2022/12/21 00:25:06;;;;;;;2.75;1.70;;;17.80;55.70;;;;;;5053163;28;20179;-66
2022/12/21 00:27:32;;;;;;;1.60;1.50;;;17.80;55.70;;;;;;5052494;28;20175;-64
2022/12/21 00:29:57;;;;;;;1.30;1.20;;;17.80;55.70;;;;;;5053324;28;20221;-65
2022/12/21 00:32:23;;;;;;;1.63;1.52;;;17.80;55.70;;;;;;5053318;28;20175;-65
2022/12/21 00:34:48;;;;;;;1.60;1.50;;;17.80;55.70;;;;;;5052395;28;20178;-65
2022/12/21 00:37:14;;;;;;;1.52;1.42;;;17.80;55.80;;;;;;5053001;28;20222;-67
2022/12/21 00:39:39;;;;;;;1.63;1.50;;;17.80;55.80;;;;;;5052031;28;20167;-66
2022/12/21 00:42:05;;;;;;;2.33;1.95;;;17.70;55.80;;;;;;5053221;28;20271;-67
2022/12/21 00:44:30;;;;;;;1.50;1.40;;;17.70;55.80;;;;;;5053008;28;20258;-65
2022/12/21 00:46:56;;;;;;;1.73;1.60;;;17.70;55.90;;;;;;5051861;28;20175;-65
2022/12/21 00:49:21;;;;;;;1.35;1.25;;;17.70;55.80;;;;;;5052555;28;20167;-65
2022/12/21 00:51:47;;;;;;;1.52;1.42;;;17.70;55.90;;;;;;5052568;28;20190;-65
2022/12/21 00:54:12;;;;;;;1.95;1.73;;;17.70;55.90;;;;;;5051994;28;20171;-66
2022/12/21 00:56:38;;;;;;;2.17;1.60;;;17.70;55.90;;;;;;5052484;28;20646;-65
2022/12/21 00:59:03;;;;;;;2.58;1.60;;;17.60;55.90;;;;;;5052665;28;20215;-65
2022/12/21 01:01:31;;;;;;;1.80;1.70;;;17.70;55.90;;;;;;5052479;28;20186;-64
2022/12/21 01:03:56;;;;;;;1.67;1.45;;;17.70;56.10;;;;;;5052566;28;20179;-64
2022/12/21 01:06:24;;;;;;;1.60;1.50;;;17.70;56.00;;;;;;5052797;28;20175;-65
2022/12/21 01:08:49;;;;;;;1.73;1.63;;;17.60;56.00;;;;;;5051600;28;20631;-65
2022/12/21 01:11:16;;;;;;;1.60;1.50;;;17.60;56.00;;;;;;5052946;28;20171;-66
2022/12/21 01:13:41;;;;;;;1.70;1.60;;;17.60;56.00;;;;;;5052387;28;20691;-65
2022/12/21 01:16:21;;;;;;;1.92;1.80;;;17.60;56.00;;;;;;5051848;28;20234;-66
2022/12/21 01:18:46;;;;;;;1.70;1.60;;;17.60;56.00;;;;;;5052512;28;20218;-66
2022/12/21 01:21:19;;;;;;;1.55;1.45;;;17.60;56.10;;;;;;5052607;28;20729;-66
2022/12/21 01:23:44;;;;;;;1.92;1.65;;;17.60;56.10;;;;;;5051691;28;20228;-65
2022/12/21 01:26:11;;;;;;;1.92;1.73;;;17.60;56.10;;;;;;5052587;28;20171;-65
2022/12/21 01:28:36;;;;;;;1.70;1.60;;;17.60;56.10;;;;;;5052394;28;20241;-64
2022/12/21 01:31:02;;;;;;;2.08;1.88;;;17.60;56.10;;;;;;5051866;28;20168;-64
2022/12/21 01:33:27;;;;;;;1.83;1.70;;;17.60;56.20;;;;;;5052489;28;20171;-65
2022/12/21 01:35:53;;;;;;;1.73;1.60;;;17.50;56.10;;;;;;5051477;28;20182;-66
2022/12/21 01:38:18;;;;;;;1.60;1.50;;;17.60;56.20;;;;;;5052337;28;20207;-66
2022/12/21 01:40:44;;;;;;;2.45;1.75;;;17.50;56.20;;;;;;5052212;28;20175;-66
2022/12/21 01:43:35;;;;;;;1.83;1.73;;;17.50;56.20;;;;;;5051880;28;20221;-65
2022/12/21 01:46:00;;;;;;;1.67;1.58;;;17.50;56.20;;;;;;5052157;28;20266;-65
2022/12/21 01:48:26;;;;;;;1.67;1.42;;;17.50;56.30;;;;;;5052292;28;20603;-64
2022/12/21 01:50:57;;;;;;;1.90;1.75;;;17.50;56.30;;;;;;5050105;28;20270;-64
2022/12/21 01:53:34;;;;;;;1.85;1.67;;;17.50;56.30;;;;;;5051231;28;20182;-65
2022/12/21 01:56:01;;;;;;;1.65;1.55;;;17.50;56.30;;;;;;5051203;28;20171;-65
2022/12/21 01:58:26;;;;;;;1.67;1.58;;;17.50;56.30;;;;;;5050613;28;20238;-64
2022/12/21 02:00:53;;;;;;;1.80;1.70;;;17.50;56.30;;;;;;5055696;28;20202;-64
2022/12/21 02:03:19;;;;;;;1.75;1.65;;;17.50;56.40;;;;;;5054825;28;20186;-64
2022/12/21 02:06:08;;;;;;;2.47;1.63;;;17.40;56.30;;;;;;5053834;28;20179;-65
2022/12/21 02:08:34;;;;;;;2.15;1.88;;;17.50;56.40;;;;;;5054491;28;20175;-65
2022/12/21 02:10:59;;;;;;;3.03;1.50;;;17.50;56.40;;;;;;5053967;28;20218;-66
2022/12/21 02:13:25;;;;;;;1.83;1.70;;;17.50;56.40;;;;;;5054455;28;20171;-65
2022/12/21 02:15:59;;;;;;;2.08;1.98;;;17.40;56.40;;;;;;5055352;28;20297;-66
2022/12/21 02:18:34;;;;;;;1.92;1.83;;;17.40;56.40;;;;;;5054704;28;20692;-65
2022/12/21 02:21:28;;;;;;;1.95;1.83;;;17.40;56.40;;;;;;5055603;28;20174;-65
2022/12/21 02:24:21;;;;;;;1.92;1.77;;;17.40;56.50;;;;;;5054180;28;20579;-65
2022/12/21 02:27:21;;;;;;;2.10;1.60;;;17.40;56.40;;;;;;5053803;28;20538;-65
2022/12/21 02:30:06;;;;;;;1.65;1.50;;;17.40;56.40;;;;;;5054310;28;20664;-65
2022/12/21 02:32:32;;;;;;;2.13;1.92;;;17.40;56.40;;;;;;5053856;28;20258;-65
2022/12/21 02:35:22;;;;;;;1.73;1.63;;;17.40;56.50;;;;;;5055184;28;20693;-65
2022/12/21 02:38:01;;;;;;;1.80;1.70;;;17.40;56.50;;;;;;5054964;28;20202;-66
2022/12/21 02:40:44;;;;;;;2.20;1.95;;;17.40;56.50;;;;;;5053344;28;20175;-66
2022/12/21 02:46:26;;;;;;;2.70;2.10;;;17.40;56.50;;;;;;5053435;28;20220;-65
2022/12/21 02:49:06;;;;;;;1.52;1.42;;;17.30;56.50;;;;;;5053874;28;20659;-64
2022/12/21 02:52:04;;;;;;;2.70;2.30;;;17.40;56.50;;;;;;5037399;28;20273;-65
2022/12/21 02:54:30;;;;;;;1.92;1.83;;;17.30;56.50;;;;;;5053036;28;20175;-65
2022/12/21 02:56:55;;;;;;;1.92;1.83;;;17.30;56.60;;;;;;5054472;28;20186;-65
2022/12/21 02:59:23;;;;;;;2.10;2.00;;;17.40;56.60;;;;;;5054768;28;20201;-64
2022/12/21 03:02:19;;;;;;;2.63;2.25;;;17.30;56.60;;;;;;5036448;28;20270;-65
2022/12/21 03:05:03;;;;;;;3.95;2.30;;;17.30;56.60;;;;;;5053169;28;20179;-65
2022/12/21 03:07:46;;;;;;;2.33;2.13;;;17.30;56.70;;;;;;5053088;28;20232;-64
2022/12/21 03:10:42;;;;;;;2.30;2.20;;;17.30;56.70;;;;;;5037289;28;20357;-70
2022/12/21 03:13:30;;;;;;;3.53;2.05;;;17.30;56.70;;;;;;5054519;28;20174;-66
2022/12/21 03:16:08;;;;;;;3.17;2.90;;;17.30;56.70;;;;;;5036597;28;20242;-66
2022/12/21 03:18:50;;;;;;;2.50;2.30;;;17.30;56.80;;;;;;5053346;28;20237;-67
2022/12/21 03:21:44;;;;;;;2.55;2.35;;;17.20;56.60;;;;;;5037269;28;20175;-67
2022/12/21 03:24:10;;;;;;;2.30;2.10;;;17.30;56.80;;;;;;5049294;28;20187;-66
2022/12/21 03:26:37;;;;;;;2.30;2.10;;;17.30;56.70;;;;;;5054011;28;20279;-65
2022/12/21 03:29:03;;;;;;;2.58;2.38;;;17.20;56.70;;;;;;5052537;28;20175;-66
2022/12/21 03:31:33;;;;;;;2.20;2.10;;;17.20;56.70;;;;;;5053230;28;20248;-65
2022/12/21 03:34:06;;;;;;;2.45;2.25;;;17.20;56.70;;;;;;5053100;28;20182;-66
2022/12/21 03:36:40;;;;;;;3.00;2.67;;;17.20;56.80;;;;;;5035661;28;20186;-66
2022/12/21 03:39:16;;;;;;;3.35;2.85;;;17.20;56.80;;;;;;5053136;28;20257;-67
2022/12/21 03:41:45;;;;;;;2.38;2.17;;;17.20;56.80;;;;;;5036388;28;20175;-67
2022/12/21 03:44:12;;;;;;;3.00;2.17;;;17.20;56.90;;;;;;5052284;28;20579;-67
2022/12/21 03:46:55;;;;;;;2.97;2.67;;;17.20;56.80;;;;;;5052567;28;20179;-66
2022/12/21 03:49:35;;;;;;;2.63;2.42;;;17.20;56.90;;;;;;5053966;28;20186;-65
2022/12/21 03:52:33;;;;;;;2.67;2.47;;;17.20;56.80;;;;;;5038180;28;20182;-66
2022/12/21 03:55:02;;;;;;;2.65;2.45;;;17.20;56.90;;;;;;5049190;28;20274;-66
2022/12/21 03:57:28;;;;;;;2.83;2.35;;;17.20;56.90;;;;;;5035605;28;20242;-66
2022/12/21 03:59:55;;;;;;;2.80;2.40;;;17.20;56.90;;;;;;5053684;28;20191;-66
2022/12/21 04:02:23;;;;;;;2.58;2.35;;;17.20;57.00;;;;;;5052615;28;20175;-66
2022/12/21 04:05:12;;;;;;;2.60;2.10;;;17.20;57.10;;;;;;5052744;28;20224;-65
2022/12/21 04:07:37;;;;;;;2.78;2.58;;;17.20;57.10;;;;;;5052136;28;20636;-66
2022/12/21 04:10:06;;;;;;;2.70;2.50;;;17.10;57.10;;;;;;5052349;28;20183;-67
2022/12/21 04:12:37;;;;;;;3.05;2.75;;;17.20;57.10;;;;;;5051356;28;20629;-66
2022/12/21 04:15:11;;;;;;;2.65;2.45;;;17.10;57.10;;;;;;5053234;28;20746;-67
2022/12/21 04:17:37;;;;;;;2.58;2.30;;;17.10;57.10;;;;;;5052527;28;20213;-67
2022/12/21 04:20:05;;;;;;;3.33;2.58;;;17.10;57.10;;;;;;5053471;28;20167;-67
2022/12/21 04:28:09;;;;;;;1.90;1.80;;;17.10;57.10;;;;;;5053460;28;20190;-65
2022/12/21 04:30:39;;;;;;;2.42;2.22;;;17.10;57.10;;;;;;5053009;28;20644;-66
2022/12/21 04:33:05;;;;;;;2.42;2.22;;;17.10;57.10;;;;;;5035187;28;20176;-67
2022/12/21 04:35:30;;;;;;;2.85;2.47;;;17.10;57.10;;;;;;5053099;28;20517;-67
2022/12/21 04:37:56;;;;;;;2.35;2.15;;;17.10;57.10;;;;;;5053137;28;20211;-65
2022/12/21 04:40:21;;;;;;;2.75;2.30;;;17.00;57.00;;;;;;5052455;28;20254;-66
2022/12/21 04:42:47;;;;;;;2.72;2.50;;;17.10;57.60;;;;;;5052736;28;20262;-65
2022/12/21 04:45:12;;;;;;;3.00;2.80;;;17.10;56.80;;;;;;5052869;28;20167;-66
2022/12/21 04:47:38;;;;;;;3.67;2.88;;;17.10;56.90;;;;;;5051894;28;20179;-64
2022/12/21 04:50:04;;;;;;;2.67;2.47;;;17.10;56.90;;;;;;5053135;28;20171;-65
2022/12/21 04:52:30;;;;;;;2.50;2.30;;;17.00;56.90;;;;;;5052826;28;20175;-64
2022/12/21 04:54:56;;;;;;;2.92;2.70;;;17.00;57.00;;;;;;5052356;28;20163;-65
2022/12/21 04:57:22;;;;;;;3.25;2.63;;;17.00;57.70;;;;;;5052788;28;20199;-65
2022/12/21 04:59:47;;;;;;;3.28;2.97;;;17.00;57.00;;;;;;5051830;28;20531;-64
2022/12/21 05:02:13;;;;;;;3.17;2.88;;;17.00;56.90;;;;;;5052762;28;20175;-65
2022/12/21 05:04:38;;;;;;;2.95;2.75;;;17.00;56.70;;;;;;5052658;28;20175;-64
2022/12/21 05:07:04;;;;;;;3.90;3.50;;;17.00;56.70;;;;;;5052211;28;20186;-65
2022/12/21 05:09:29;;;;;;;3.17;2.88;;;17.00;56.60;;;;;;5052862;28;20177;-66
2022/12/21 05:11:55;;;;;;;2.85;2.65;;;17.00;56.50;;;;;;5052471;28;20187;-65
2022/12/21 05:14:21;;;;;;;2.92;2.72;;;17.00;56.80;;;;;;5051824;28;20539;-64
2022/12/21 05:16:46;;;;;;;2.80;2.60;;;17.00;56.80;;;;;;5052314;28;20179;-65
2022/12/21 05:19:12;;;;;;;2.70;2.50;;;17.00;56.60;;;;;;5052756;28;20266;-66
2022/12/21 05:21:37;;;;;;;3.53;3.22;;;17.00;56.80;;;;;;5051793;28;20190;-65
2022/12/21 05:24:03;;;;;;;3.28;2.95;;;17.00;56.50;;;;;;5052719;28;20182;-66
2022/12/21 05:26:29;;;;;;;4.15;3.40;;;17.00;56.50;;;;;;5052626;28;20179;-65
2022/12/21 05:28:54;;;;;;;3.60;3.30;;;16.90;56.30;;;;;;5051590;28;20175;-64
2022/12/21 05:31:20;;;;;;;3.45;3.15;;;16.90;56.30;;;;;;5052462;28;20172;-64
2022/12/21 05:33:45;;;;;;;3.50;3.20;;;16.90;56.40;;;;;;5053171;28;20205;-65
2022/12/21 05:36:13;;;;;;;3.58;3.28;;;16.90;56.40;;;;;;5055746;28;20601;-66
2022/12/21 05:38:38;;;;;;;3.40;3.10;;;16.90;56.40;;;;;;5056141;28;20289;-65
2022/12/21 05:41:04;;;;;;;3.47;3.17;;;16.90;56.50;;;;;;5056402;28;20645;-65
2022/12/21 05:43:30;;;;;;;3.83;3.08;;;16.90;56.70;;;;;;5055563;28;20270;-65
2022/12/21 05:46:00;;;;;;;3.13;2.92;;;16.90;56.50;;;;;;5056086;28;20240;-64
2022/12/21 05:48:25;;;;;;;3.58;3.28;;;16.90;56.40;;;;;;5056423;28;20226;-64
2022/12/21 05:50:51;;;;;;;4.05;3.03;;;16.90;56.40;;;;;;5055406;28;20171;-64
2022/12/21 05:53:16;;;;;;;3.40;3.10;;;16.90;56.50;;;;;;5056237;28;20171;-64
2022/12/21 05:55:43;;;;;;;3.42;3.13;;;16.90;56.30;;;;;;5055937;28;20514;-64
2022/12/21 05:58:09;;;;;;;3.85;3.55;;;16.90;56.30;;;;;;5055193;28;20217;-66
2022/12/21 06:00:34;;;;;;;3.75;3.45;;;16.80;56.20;;;;;;5056072;28;20171;-64
2022/12/21 06:03:00;;;;;;;3.42;3.13;;;16.90;56.30;;;;;;5055953;28;20249;-64
2022/12/21 06:05:27;;;;;;;3.28;3.08;;;16.90;56.30;;;;;;5055753;28;20199;-65
2022/12/21 06:07:53;;;;;;;3.67;3.38;;;16.90;56.40;;;;;;5055700;28;20244;-67
2022/12/21 06:10:19;;;;;;;3.80;3.45;;;16.90;56.30;;;;;;5055435;28;20571;-67
2022/12/21 06:12:44;;;;;;;3.88;3.53;;;16.90;56.30;;;;;;5055378;28;20179;-67
2022/12/21 06:15:13;;;;;;;4.03;3.70;;;16.90;56.20;;;;;;5055495;28;20269;-68
2022/12/21 06:17:39;;;;;;;4.47;3.90;;;16.80;56.20;;;;;;5054514;28;20298;-64
2022/12/21 06:20:05;;;;;;;4.38;3.97;;;16.80;56.30;;;;;;5055793;28;20329;-68
2022/12/21 06:22:34;;;;;;;3.67;3.38;;;16.80;56.30;;;;;;5055363;28;20180;-67
2022/12/21 06:24:59;;;;;;;4.18;3.72;;;16.80;56.30;;;;;;5054802;28;20179;-67
2022/12/21 06:27:25;;;;;;;5.07;4.20;;;16.80;56.20;;;;;;5055459;28;20277;-66
2022/12/21 06:29:50;;;;;;;4.80;4.07;;;16.80;56.30;;;;;;5055321;28;20202;-66
2022/12/21 06:32:16;;;;;;;4.80;4.40;;;16.80;56.30;;;;;;5054866;28;20588;-65
2022/12/21 06:34:41;;;;;;;4.20;3.80;;;16.80;56.20;;;;;;5055093;28;20688;-66
2022/12/21 06:37:07;;;;;;;4.25;3.85;;;16.80;56.40;;;;;;5055290;28;20270;-68
2022/12/21 06:39:32;;;;;;;4.18;3.70;;;16.80;56.30;;;;;;5054181;28;20214;-67
2022/12/21 06:41:58;;;;;;;5.18;4.47;;;16.80;56.30;;;;;;5055009;28;20261;-67
2022/12/21 06:44:23;;;;;;;4.28;3.83;;;16.80;56.30;;;;;;5055022;28;20179;-67
2022/12/21 06:46:49;;;;;;;4.38;3.97;;;16.80;56.40;;;;;;5054311;28;20175;-67
2022/12/21 06:49:14;;;;;;;3.70;3.33;;;16.80;57.00;;;;;;5055042;28;20182;-66
2022/12/21 06:51:40;;;;;;;4.20;3.80;;;16.80;56.70;;;;;;5054793;28;20171;-66
2022/12/21 06:54:06;;;;;;;6.72;4.38;;;16.80;56.50;;;;;;5054304;28;20164;-66
2022/12/21 06:56:31;;;;;;;4.80;4.30;;;16.80;56.40;;;;;;5054576;28;20183;-66
2022/12/21 06:58:57;;;;;;;5.20;4.70;;;16.70;56.30;;;;;;5054736;28;20572;-65
2022/12/21 07:01:27;;;;;;;4.35;3.90;;;16.70;56.30;;;;;;5054355;28;20171;-65
2022/12/21 07:03:53;;;;;;;4.40;4.03;;;16.70;56.30;;;;;;5054653;28;20167;-66
2022/12/21 07:06:19;;;;;;;4.68;4.13;;;16.70;56.30;;;;;;5054695;28;20175;-66
2022/12/21 07:08:45;;;;;;;4.30;3.88;;;16.70;56.30;;;;;;5054476;28;20179;-66
2022/12/21 07:11:12;;;;;;;4.30;3.90;;;16.70;56.50;;;;;;5054831;28;20657;-67
2022/12/21 07:13:39;;;;;;;4.40;4.00;;;16.70;56.60;;;;;;5053462;28;20191;-67
2022/12/21 07:16:05;;;;;;;4.70;4.30;;;16.70;56.50;;;;;;5054574;28;20231;-67
2022/12/21 07:18:30;;;;;;;5.07;4.57;;;16.70;56.50;;;;;;5054205;28;20342;-66
2022/12/21 07:20:57;;;;;;;4.57;4.18;;;16.70;56.30;;;;;;5053920;28;20258;-67
2022/12/21 07:23:23;;;;;;;5.28;4.55;;;16.70;56.40;;;;;;5054706;28;20771;-66
2022/12/21 07:25:49;;;;;;;4.88;4.45;;;16.70;56.40;;;;;;5054224;28;20583;-67
2022/12/21 07:28:14;;;;;;;4.40;3.95;;;16.70;56.30;;;;;;5053555;28;20175;-66
2022/12/21 07:30:40;;;;;;;4.68;4.28;;;16.70;56.50;;;;;;5054154;28;20178;-65
2022/12/21 07:33:05;;;;;;;5.00;4.60;;;16.70;56.30;;;;;;5054390;28;20232;-66
2022/12/21 07:35:31;;;;;;;4.85;4.45;;;16.70;56.40;;;;;;5053198;28;20171;-67
2022/12/21 07:37:56;;;;;;;6.43;4.53;;;16.70;56.30;;;;;;5054219;28;20207;-68
2022/12/21 07:40:22;;;;;;;4.47;4.07;;;16.70;56.30;;;;;;5054230;28;20178;-68
2022/12/21 07:42:47;;;;;;;5.32;4.50;;;16.70;56.30;;;;;;5052981;28;20262;-67
2022/12/21 07:45:13;;;;;;;5.25;4.80;;;16.70;56.30;;;;;;5054240;28;20258;-67
2022/12/21 07:47:39;;;;;;;4.68;4.28;;;16.70;56.30;;;;;;5054123;28;20269;-66
2022/12/21 07:50:05;;;;;;;5.00;4.50;;;16.60;56.20;;;;;;5053274;28;20191;-67
2022/12/21 07:52:31;;;;;;;4.60;4.20;;;16.70;56.20;;;;;;5053609;28;20175;-66
2022/12/21 07:54:57;;;;;;;4.82;4.43;;;16.60;56.20;;;;;;5053948;28;20175;-66
2022/12/21 07:57:22;;;;;;;4.97;4.57;;;16.60;56.20;;;;;;5052492;28;20211;-66
2022/12/21 07:59:48;;;;;;;4.90;4.50;;;16.60;56.10;;;;;;5053553;28;20187;-65
2022/12/21 08:02:13;;;;;;;4.93;4.53;;;16.60;56.10;;;;;;5053854;28;20581;-65
2022/12/21 08:04:39;;;;;;;4.78;4.35;;;16.60;56.10;;;;;;5052587;28;20567;-64
2022/12/21 08:07:05;;;;;;;4.32;3.92;;;16.60;56.10;;;;;;5053573;28;20190;-70
2022/12/21 08:09:32;;;;;;;6.50;4.28;;;16.60;56.10;;;;;;5053091;28;20221;-65
2022/12/21 08:11:57;;;;;;;5.45;4.05;;;16.60;56.10;;;;;;5052981;28;20183;-64
2022/12/21 08:14:23;;;;;;;4.60;4.20;;;16.60;56.20;;;;;;5053183;28;20182;-67
2022/12/21 08:16:48;;;;;;;3.70;3.40;;;16.60;56.20;;;;;;5052485;28;20167;-66
2022/12/21 08:19:14;;;;;;;4.93;4.00;;;16.60;56.10;;;;;;5053452;28;20215;-65
2022/12/21 08:21:40;;;;;;;3.60;3.15;;;16.70;56.10;;;;;;5053161;28;20194;-67
2022/12/21 08:24:05;;;;;;;5.68;4.22;;;16.70;56.00;;;;;;5052460;28;20198;-68
2022/12/21 08:26:31;;;;;;;3.53;2.92;;;16.70;56.50;;;;;;5052945;28;20218;-68
2022/12/21 08:28:57;;;;;;;4.15;3.30;;;16.70;56.30;;;;;;5053700;28;20170;-66
2022/12/21 08:31:22;;;;;;;5.47;3.60;;;16.80;56.30;;;;;;5052597;28;20179;-67
2022/12/21 08:33:48;;;;;;;3.92;3.63;;;16.80;56.30;;;;;;5053083;28;20629;-66
2022/12/21 08:36:18;;;;;;;3.90;3.60;;;16.80;56.20;;;;;;5053248;28;20548;-65
2022/12/21 08:38:45;;;;;;;6.10;3.60;;;16.80;56.20;;;;;;5051959;28;20233;-66
2022/12/21 08:41:11;;;;;;;5.63;3.40;;;16.80;56.10;;;;;;5053270;28;20178;-65
2022/12/21 08:43:37;;;;;;;4.10;3.40;;;16.90;56.20;;;;;;5052923;28;20207;-67
2022/12/21 08:46:06;;;;;;;6.22;3.30;;;16.90;56.20;;;;;;5052238;28;20171;-67
2022/12/21 08:48:32;;;;;;;4.93;3.25;;;16.90;56.10;;;;;;5052642;28;20215;-68
2022/12/21 08:50:58;;;;;;;5.68;3.08;;;16.90;56.10;;;;;;5053165;28;20199;-65
2022/12/21 08:53:24;;;;;;;3.72;3.08;;;16.90;56.20;;;;;;5052207;28;20263;-66
2022/12/21 08:55:50;;;;;;;4.85;3.17;;;16.90;56.10;;;;;;5052410;28;20649;-66
2022/12/21 08:58:15;;;;;;;5.45;3.15;;;16.90;56.70;;;;;;5052840;28;20215;-69
2022/12/21 09:00:42;;;;;;;5.78;3.28;;;16.90;56.70;;;;;;5051954;28;20228;-68
2022/12/21 09:03:11;;;;;;;4.05;3.65;;;16.90;56.40;;;;;;5052846;28;20190;-68
2022/12/21 09:05:36;;;;;;;3.35;2.95;;;16.90;56.30;;;;;;5052363;28;20656;-67
2022/12/21 09:08:02;;;;;;;3.65;3.35;;;16.90;56.20;;;;;;5051957;28;20178;-64
2022/12/21 09:10:28;;;;;;;5.07;3.25;;;16.90;56.40;;;;;;5056698;28;20167;-68
2022/12/21 09:12:55;;;;;;;4.90;3.15;;;16.90;56.40;;;;;;5056554;28;20189;-67
2022/12/21 09:15:21;;;;;;;3.13;2.80;;;16.90;56.40;;;;;;5056266;28;20223;-67
2022/12/21 09:17:47;;;;;;;3.70;3.40;;;16.90;56.30;;;;;;5056210;28;20233;-68
2022/12/21 09:20:13;;;;;;;4.85;3.03;;;16.90;56.20;;;;;;5056030;28;20622;-66
2022/12/21 09:22:38;;;;;;;5.10;3.10;;;16.90;56.20;;;;;;5056047;28;20218;-63
2022/12/21 09:25:04;;;;;;;3.80;3.38;;;17.00;56.50;;;;;;5056822;28;20286;-69
2022/12/21 09:27:30;;;;;;;4.22;3.53;;;16.90;56.90;;;;;;5055862;28;20637;-70
2022/12/21 09:29:56;;;;;;;4.43;3.40;;;16.90;56.70;;;;;;5056583;28;20182;-68
2022/12/21 09:32:21;;;;;;;4.55;3.20;;;16.90;56.60;;;;;;5056609;28;20182;-65
2022/12/21 09:34:47;;;;;;;8.82;3.65;;;16.90;57.60;;;;;;5055581;28;20178;-68
2022/12/21 09:37:13;;;;;;;5.57;2.85;;;16.90;56.80;;;;;;5056437;28;20175;-65
2022/12/21 09:39:41;;;;;;;3.10;2.80;;;16.90;56.70;;;;;;5056311;28;20265;-66
2022/12/21 09:42:43;;;;;;;4.03;3.05;;;17.00;56.80;;;;;;5055484;28;20175;-68
2022/12/21 09:45:36;;;;;;;5.22;3.40;;;17.00;56.70;;;;;;5056248;28;20179;-66
2022/12/21 09:48:03;;;;;;;5.25;2.70;;;17.10;56.80;;;;;;5064930;28;20175;-66
2022/12/21 09:50:57;;;;;;;4.63;2.78;;;17.20;56.90;;;;;;5063563;28;20167;-67
2022/12/21 09:53:28;;;;;;;7.00;2.78;;;17.30;56.80;;;;;;5075738;28;20261;-66
2022/12/21 09:55:54;;;;;;;3.33;2.67;;;17.40;56.50;;;;;;5055209;28;20660;-66
2022/12/21 09:58:24;;;;;;;5.88;2.50;;;17.60;56.30;;;;;;5054912;28;20252;-66
2022/12/21 10:00:52;;;;;;;3.25;2.25;;;17.70;56.00;;;;;;5055828;28;20206;-67
2022/12/21 10:03:33;;;;;;;3.90;2.25;;;17.90;55.80;;;;;;5063329;28;20261;-67
2022/12/21 10:06:19;;;;;;;4.10;2.08;;;18.10;55.20;;;;;;5074728;28;20185;-67
2022/12/21 10:09:06;;;;;;;2.47;2.20;;;18.30;54.90;;;;;;5064391;28;20186;-66
2022/12/21 10:11:57;;;;;;;3.33;2.20;;;18.30;54.80;;;;;;5038431;28;20182;-66
2022/12/21 10:14:44;;;;;;;6.47;2.03;;;18.40;54.60;;;;;;5055475;28;20182;-66
2022/12/21 10:17:37;;;;;;;3.38;1.90;;;18.50;54.60;;;;;;5055071;28;20186;-65
2022/12/21 10:20:38;;;;;;;2.22;1.95;;;18.50;54.30;;;;;;5055236;28;20182;-65
2022/12/21 10:23:08;;;;;;;3.80;1.75;;;18.60;54.20;;;;;;5044396;28;20183;-63
2022/12/21 10:25:42;;;;;;;3.35;1.80;;;18.60;54.00;;;;;;5053122;28;20541;-63
2022/12/21 10:28:35;;;;;;;2.83;2.40;;;18.70;53.90;;;;;;5055564;28;20171;-63
2022/12/21 10:31:07;;;;;;;1.88;1.70;;;18.80;53.70;;;;;;5054739;28;20185;-64
2022/12/21 10:33:40;;;;;;;2.67;1.85;;;18.80;53.70;;;;;;5055159;28;20179;-66
2022/12/21 10:36:09;;;;;;;3.90;1.88;;;18.80;53.50;;;;;;5055187;28;20171;-66
2022/12/21 10:38:34;;;;;;;2.53;1.83;;;18.80;53.50;;;;;;5052858;28;20293;-66
2022/12/21 10:41:02;;;;;;;2.70;2.30;;;18.90;53.50;;;;;;5055182;28;20313;-65
2022/12/21 10:43:28;;;;;;;3.17;2.03;;;18.80;53.40;;;;;;5037732;28;20187;-67
2022/12/21 10:45:53;;;;;;;2.97;1.80;;;18.80;53.50;;;;;;5053161;28;20277;-67
2022/12/21 10:48:19;;;;;;;2.70;1.85;;;18.70;53.60;;;;;;5055267;28;20262;-67
2022/12/21 10:50:45;;;;;;;2.90;1.92;;;18.70;54.20;;;;;;5054766;28;20195;-67
2022/12/21 10:53:25;;;;;;;2.83;1.83;;;18.60;53.60;;;;;;5054599;28;20179;-66
2022/12/21 10:55:52;;;;;;;3.78;1.98;;;18.60;53.70;;;;;;5034739;28;20592;-67
2022/12/21 10:58:22;;;;;;;3.15;2.08;;;18.60;53.80;;;;;;5033700;28;20288;-66
2022/12/21 11:00:56;;;;;;;3.03;2.10;;;18.50;53.90;;;;;;5034232;28;20179;-67
2022/12/21 11:03:34;;;;;;;4.47;2.35;;;18.40;54.00;;;;;;5034699;28;20180;-66
2022/12/21 11:06:13;;;;;;;2.47;1.73;;;18.30;54.00;;;;;;5034208;28;20237;-66
2022/12/21 11:08:49;;;;;;;2.30;1.88;;;18.40;54.10;;;;;;5033225;28;20626;-67
2022/12/21 11:11:29;;;;;;;1.90;1.80;;;18.30;54.10;;;;;;5035049;28;20179;-66
2022/12/21 11:13:57;;;;;;;2.20;2.00;;;18.30;54.10;;;;;;5033944;28;20179;-66
2022/12/21 11:16:23;;;;;;;2.35;2.15;;;18.30;54.10;;;;;;5034482;28;20219;-66
2022/12/21 11:18:48;;;;;;;2.53;1.70;;;18.30;54.20;;;;;;5032878;28;20219;-66
2022/12/21 11:21:34;;;;;;;2.92;1.63;;;18.20;54.20;;;;;;5032711;28;20172;-66
2022/12/21 11:24:22;;;;;;;2.20;1.55;;;18.20;54.30;;;;;;5042617;28;20278;-65
2022/12/21 11:26:59;;;;;;;2.40;1.85;;;18.20;54.30;;;;;;5053566;28;20586;-66
2022/12/21 11:29:25;;;;;;;2.55;1.70;;;18.20;54.40;;;;;;5054498;28;20179;-65
2022/12/21 11:31:55;;;;;;;2.05;1.67;;;18.10;54.40;;;;;;5053023;28;20265;-66
2022/12/21 11:34:54;;;;;;;2.25;2.03;;;18.20;54.40;;;;;;5052562;28;20175;-65
2022/12/21 11:37:23;;;;;;;2.45;1.73;;;18.30;54.30;;;;;;5052604;28;20630;-65
2022/12/21 11:39:48;;;;;;;3.75;2.08;;;18.30;54.30;;;;;;5053618;28;20233;-66
2022/12/21 11:42:26;;;;;;;2.22;1.98;;;18.30;54.20;;;;;;5053052;28;20572;-66
2022/12/21 11:45:19;;;;;;;2.47;2.22;;;18.30;54.20;;;;;;5052675;28;20183;-67
2022/12/21 11:47:52;;;;;;;5.03;1.90;;;18.30;54.20;;;;;;5052844;28;20183;-67
2022/12/21 11:50:23;;;;;;;1.80;1.52;;;18.30;54.20;;;;;;5052900;28;20198;-66
2022/12/21 11:53:12;;;;;;;3.80;2.22;;;18.20;54.20;;;;;;5053623;28;20179;-68
2022/12/21 11:56:01;;;;;;;3.90;2.38;;;18.20;54.30;;;;;;5070537;28;20675;-67
2022/12/21 11:58:40;;;;;;;3.00;2.45;;;18.10;54.50;;;;;;5058557;28;20206;-67
2022/12/21 12:01:22;;;;;;;3.03;2.40;;;18.10;54.60;;;;;;5072320;28;20231;-66
2022/12/21 12:03:51;;;;;;;4.30;2.13;;;18.10;54.80;;;;;;5072688;28;20182;-66
2022/12/21 12:06:28;;;;;;;3.75;2.30;;;18.10;54.90;;;;;;5073503;28;20646;-65
2022/12/21 12:09:13;;;;;;;5.93;2.75;;;18.10;55.10;;;;;;5072525;28;20181;-66
2022/12/21 12:12:02;;;;;;;4.43;2.58;;;18.10;55.10;;;;;;5073305;28;20221;-66
2022/12/21 12:14:28;;;;;;;5.88;3.00;;;18.00;55.30;;;;;;5072121;28;20182;-66
2022/12/21 12:17:08;;;;;;;4.35;2.40;;;18.00;55.50;;;;;;5072420;28;20201;-65
2022/12/21 12:19:53;;;;;;;4.25;2.13;;;18.00;55.30;;;;;;5072897;28;20197;-66
2022/12/21 12:22:48;;;;;;;5.13;2.30;;;18.00;55.40;;;;;;5072177;28;20716;-65
2022/12/21 12:25:32;;;;;;;4.97;2.38;;;18.00;55.40;;;;;;5071964;28;20205;-65
2022/12/21 12:28:11;;;;;;;5.00;2.50;;;18.10;55.60;;;;;;5073331;28;20170;-64
2022/12/21 12:30:57;;;;;;;4.32;2.72;;;18.10;55.50;;;;;;5072267;28;20178;-66
2022/12/21 12:33:45;;;;;;;3.15;2.00;;;18.10;55.40;;;;;;5073303;28;20231;-70
2022/12/21 12:36:17;;;;;;;8.20;2.78;;;18.10;55.40;;;;;;5072889;28;20558;-65
2022/12/21 12:39:01;;;;;;;2.72;2.10;;;18.10;55.30;;;;;;5071056;28;20244;-64
2022/12/21 12:41:40;;;;;;;5.63;2.70;;;18.10;55.40;;;;;;5073117;28;20235;-66
2022/12/21 12:44:14;;;;;;;4.57;2.38;;;18.00;55.50;;;;;;5055453;28;20178;-66
2022/12/21 12:47:19;;;;;;;6.03;2.53;;;18.00;55.90;;;;;;5072468;28;20742;-66
2022/12/21 12:50:06;;;;;;;5.47;2.83;;;18.00;55.70;;;;;;5072000;28;20186;-67
2022/12/21 12:52:34;;;;;;;5.03;2.50;;;18.00;55.80;;;;;;5072221;28;20197;-68
2022/12/21 12:55:18;;;;;;;4.15;2.28;;;18.00;55.90;;;;;;5059416;28;20210;-66
2022/12/21 12:57:57;;;;;;;4.40;2.50;;;18.00;55.80;;;;;;5052443;28;20668;-66
2022/12/21 13:00:23;;;;;;;4.18;2.50;;;18.10;55.80;;;;;;5052387;28;20260;-67
2022/12/21 13:03:07;;;;;;;4.70;2.58;;;18.10;55.70;;;;;;5034836;28;20206;-67
2022/12/21 13:06:00;;;;;;;3.50;2.40;;;18.10;55.60;;;;;;5051841;28;20171;-67
2022/12/21 13:08:37;;;;;;;3.42;2.15;;;18.10;55.60;;;;;;5051816;28;20187;-66
2022/12/21 13:11:10;;;;;;;6.80;2.17;;;18.00;55.60;;;;;;5052817;28;20174;-65
2022/12/21 13:13:49;;;;;;;4.30;2.33;;;18.00;55.50;;;;;;5050665;28;20179;-67
2022/12/21 13:16:27;;;;;;;5.78;2.60;;;18.00;55.50;;;;;;5051472;28;20261;-66